createdAt,value
2023-01-30T00:01:26.878Z,100678.66
2023-01-30T00:03:54.440Z,100674.95
2023-01-30T00:06:21.358Z,100662.29
2023-01-30T00:08:48.322Z,100642.99
2023-01-30T00:11:17.233Z,100622.33
2023-01-30T00:13:44.183Z,100604.42
2023-01-30T00:16:12.038Z,100613.03
2023-01-30T00:18:40.345Z,100616.86
2023-01-30T00:21:09.454Z,100610.45
2023-01-30T00:23:38.053Z,100610.97
2023-01-30T00:26:06.366Z,100616.89
2023-01-30T00:28:33.714Z,100628.81
2023-01-30T00:31:00.478Z,100634.83
2023-01-30T00:33:27.738Z,100625.32
2023-01-30T00:35:56.551Z,100618.53
2023-01-30T00:38:24.449Z,100624.20
2023-01-30T00:40:51.900Z,100627.31
2023-01-30T00:43:39.090Z,100624.49
2023-01-30T00:46:57.038Z,100618.13
2023-01-30T00:49:25.954Z,100604.63
2023-01-30T00:51:53.097Z,100594.15
2023-01-30T00:54:19.667Z,100581.97
2023-01-30T00:56:46.333Z,100578.23
2023-01-30T00:59:13.618Z,100582.40
2023-01-30T01:01:40.842Z,100573.29
2023-01-30T01:04:10.527Z,100563.86
2023-01-30T01:06:38.750Z,100558.23
2023-01-30T01:09:06.363Z,100562.77
2023-01-30T01:11:34.280Z,100556.48
2023-01-30T01:14:02.513Z,100560.96
2023-01-30T01:16:42.504Z,100551.42
2023-01-30T01:19:09.452Z,100556.27
2023-01-30T01:21:36.369Z,100542.55
2023-01-30T01:24:03.716Z,100520.11
2023-01-30T01:26:30.572Z,100517.37
2023-01-30T01:28:58.917Z,100509.52
2023-01-30T01:31:26.084Z,100505.20
2023-01-30T01:33:53.248Z,100499.87
2023-01-30T01:36:49.967Z,100501.10
2023-01-30T01:39:07.202Z,100494.06
2023-01-30T01:41:34.012Z,100463.61
2023-01-30T01:44:10.509Z,100452.26
2023-01-30T01:46:51.277Z,100448.17
2023-01-30T01:49:18.306Z,100437.83
2023-01-30T01:51:54.578Z,100439.55
2023-01-30T01:54:50.401Z,100423.12
2023-01-30T01:57:26.896Z,100423.90
2023-01-30T02:00:05.639Z,100424.23
2023-01-30T02:02:34.645Z,100418.66
2023-01-30T02:05:02.940Z,100414.63
2023-01-30T02:07:43.446Z,100420.18
2023-01-30T02:10:15.760Z,100413.37
2023-01-30T02:12:43.922Z,100405.51
2023-01-30T02:15:11.457Z,100414.64
2023-01-30T02:17:38.431Z,100411.13
2023-01-30T02:20:21.637Z,100408.88
2023-01-30T02:23:17.412Z,100395.17
2023-01-30T02:25:56.661Z,100393.54
2023-01-30T02:28:39.286Z,100389.38
2023-01-30T02:31:32.435Z,100392.36
2023-01-30T02:34:25.567Z,100385.01
2023-01-30T02:37:05.779Z,100373.19
2023-01-30T02:40:02.466Z,100369.50
2023-01-30T02:43:06.458Z,100361.79
2023-01-30T02:45:42.252Z,100361.41
2023-01-30T02:48:19.066Z,100363.13
2023-01-30T02:50:51.574Z,100344.73
2023-01-30T02:53:18.822Z,100343.19
2023-01-30T02:55:46.725Z,100334.55
2023-01-30T02:58:14.971Z,100332.64
2023-01-30T03:00:44.710Z,100337.91
2023-01-30T03:03:35.466Z,100328.46
2023-01-30T03:06:27.125Z,100322.10
2023-01-30T03:09:12.501Z,100314.33
2023-01-30T03:11:54.733Z,100313.02
2023-01-30T03:14:35.178Z,100314.08
2023-01-30T03:17:04.848Z,100297.32
2023-01-30T03:19:31.836Z,100295.87
2023-01-30T03:21:58.895Z,100299.11
2023-01-30T03:24:26.465Z,100290.42
2023-01-30T03:27:04.287Z,100288.83
2023-01-30T03:29:31.058Z,100283.19
2023-01-30T03:31:57.937Z,100286.95
2023-01-30T03:34:25.278Z,100286.10
2023-01-30T03:36:51.912Z,100275.05
2023-01-30T03:39:19.279Z,100268.48
2023-01-30T03:41:46.612Z,100271.91
2023-01-30T03:44:13.993Z,100271.27
2023-01-30T03:46:41.089Z,100267.14
2023-01-30T03:49:08.320Z,100262.36
2023-01-30T03:51:35.009Z,100260.73
2023-01-30T03:54:02.590Z,100247.25
2023-01-30T03:56:34.492Z,100248.83
2023-01-30T03:59:01.579Z,100253.66
2023-01-30T04:01:28.250Z,100234.38
2023-01-30T04:03:55.199Z,100234.52
2023-01-30T04:06:25.161Z,100235.18
2023-01-30T04:08:58.186Z,100225.73
2023-01-30T04:11:30.506Z,100224.64
2023-01-30T04:13:57.894Z,100221.77
2023-01-30T04:16:26.723Z,100229.42
2023-01-30T04:18:53.990Z,100209.99
2023-01-30T04:21:25.467Z,100224.04
2023-01-30T04:23:57.650Z,100215.27
2023-01-30T04:26:24.889Z,100216.65
2023-01-30T04:28:57.100Z,100213.52
2023-01-30T04:31:24.717Z,100212.94
2023-01-30T04:33:59.683Z,100198.42
2023-01-30T04:36:29.151Z,100200.48
2023-01-30T04:38:59.102Z,100190.63
2023-01-30T04:41:28.832Z,100189.71
2023-01-30T04:44:28.568Z,100199.11
2023-01-30T04:46:55.552Z,100199.09
2023-01-30T04:49:22.510Z,100201.53
2023-01-30T04:51:58.981Z,100187.35
2023-01-30T04:54:26.199Z,100184.86
2023-01-30T04:56:53.114Z,100183.09
2023-01-30T04:59:55.156Z,100176.96
2023-01-30T05:02:24.048Z,100185.26
2023-01-30T05:04:53.525Z,100175.89
2023-01-30T05:07:33.566Z,100185.52
2023-01-30T05:10:03.167Z,100172.45
2023-01-30T05:12:30.746Z,100178.96
2023-01-30T05:14:57.956Z,100159.99
2023-01-30T05:17:24.871Z,100159.62
2023-01-30T05:20:26.511Z,100158.42
2023-01-30T05:23:36.457Z,100157.77
2023-01-30T05:26:09.296Z,100162.69
2023-01-30T05:28:58.715Z,100148.99
2023-01-30T05:31:26.128Z,100143.98
2023-01-30T05:33:53.480Z,100156.36
2023-01-30T05:36:22.586Z,100145.89
2023-01-30T05:38:49.501Z,100147.46
2023-01-30T05:41:22.487Z,100156.10
2023-01-30T05:43:50.578Z,100151.08
2023-01-30T05:46:17.487Z,100159.13
2023-01-30T05:48:44.665Z,100156.24
2023-01-30T05:51:24.320Z,100168.38
2023-01-30T05:53:51.530Z,100169.15
2023-01-30T05:56:19.109Z,100172.71
2023-01-30T05:58:53.836Z,100160.48
2023-01-30T06:01:22.061Z,100170.11
2023-01-30T06:03:49.185Z,100148.84
2023-01-30T06:06:16.423Z,100161.93
2023-01-30T06:08:46.860Z,100153.75
2023-01-30T06:11:20.240Z,100145.42
2023-01-30T06:13:55.971Z,100130.50
2023-01-30T06:16:45.215Z,100142.56
2023-01-30T06:19:55.058Z,100152.95
2023-01-30T06:22:34.808Z,100146.86
2023-01-30T06:25:05.140Z,100147.26
2023-01-30T06:27:54.907Z,100136.77
2023-01-30T06:30:25.382Z,100134.50
2023-01-30T06:33:02.872Z,100138.21
2023-01-30T06:35:50.803Z,100155.39
2023-01-30T06:38:20.324Z,100148.96
2023-01-30T06:40:50.002Z,100155.64
2023-01-30T06:43:21.833Z,100171.23
2023-01-30T06:46:02.317Z,100180.17
2023-01-30T06:48:32.588Z,100180.73
2023-01-30T06:51:08.049Z,100184.86
2023-01-30T06:53:37.673Z,100190.19
2023-01-30T06:56:07.827Z,100190.22
2023-01-30T06:58:37.809Z,100187.56
2023-01-30T07:01:14.951Z,100188.15
2023-01-30T07:03:48.614Z,100189.10
2023-01-30T07:06:15.314Z,100194.39
2023-01-30T07:08:44.303Z,100192.81
2023-01-30T07:11:11.448Z,100191.56
2023-01-30T07:13:38.466Z,100182.48
2023-01-30T07:16:05.913Z,100192.80
2023-01-30T07:18:35.527Z,100198.33
2023-01-30T07:21:02.569Z,100194.89
2023-01-30T07:23:29.632Z,100191.70
2023-01-30T07:26:07.026Z,100195.09
2023-01-30T07:28:33.682Z,100201.86
2023-01-30T07:31:00.828Z,100199.23
2023-01-30T07:33:27.837Z,100189.00
2023-01-30T07:35:55.950Z,100189.98
2023-01-30T07:38:23.029Z,100183.54
2023-01-30T07:40:49.665Z,100185.63
2023-01-30T07:43:16.852Z,100180.77
2023-01-30T07:45:47.937Z,100185.00
2023-01-30T07:48:23.641Z,100171.30
2023-01-30T07:50:50.543Z,100182.83
2023-01-30T07:53:21.167Z,100188.30
2023-01-30T07:55:50.556Z,100188.20
2023-01-30T07:58:19.893Z,100179.37
2023-01-30T08:00:47.125Z,100188.17
2023-01-30T08:03:15.425Z,100183.13
2023-01-30T08:05:42.368Z,100182.71
2023-01-30T08:08:09.122Z,100177.94
2023-01-30T08:10:35.888Z,100185.82
2023-01-30T08:13:11.975Z,100201.93
2023-01-30T08:15:39.072Z,100207.23
2023-01-30T08:18:07.212Z,100218.27
2023-01-30T08:20:34.095Z,100224.09
2023-01-30T08:23:02.408Z,100228.52
2023-01-30T08:25:29.623Z,100240.04
2023-01-30T08:27:58.043Z,100244.83
2023-01-30T08:30:25.427Z,100233.08
2023-01-30T08:32:52.279Z,100215.34
2023-01-30T08:35:19.517Z,100229.91
2023-01-30T08:37:46.622Z,100220.88
2023-01-30T08:40:13.828Z,100222.46
2023-01-30T08:42:41.292Z,100228.94
2023-01-30T08:45:08.547Z,100237.13
2023-01-30T08:47:35.637Z,100228.15
2023-01-30T08:50:02.882Z,100227.15
2023-01-30T08:52:30.240Z,100218.08
2023-01-30T08:54:57.521Z,100236.34
2023-01-30T08:57:24.275Z,100219.70
2023-01-30T08:59:52.160Z,100214.09
2023-01-30T09:02:19.006Z,100216.21
2023-01-30T09:04:45.859Z,100222.26
2023-01-30T09:07:21.570Z,100241.82
2023-01-30T09:09:48.826Z,100244.30
2023-01-30T09:12:16.744Z,100243.93
2023-01-30T09:14:44.280Z,100233.82
2023-01-30T09:17:11.408Z,100225.88
2023-01-30T09:19:38.593Z,100214.02
2023-01-30T09:22:07.313Z,100220.01
2023-01-30T09:24:34.453Z,100218.38
2023-01-30T09:27:01.301Z,100215.23
2023-01-30T09:29:29.257Z,100225.48
2023-01-30T09:31:56.836Z,100216.36
2023-01-30T09:34:28.785Z,100223.16
2023-01-30T09:36:56.739Z,100218.50
2023-01-30T09:39:24.020Z,100227.60
2023-01-30T09:42:06.030Z,100223.75
2023-01-30T09:45:01.239Z,100226.23
2023-01-30T09:47:46.102Z,100229.54
2023-01-30T09:50:25.871Z,100230.50
2023-01-30T09:53:02.057Z,100221.34
2023-01-30T09:55:32.659Z,100230.13
2023-01-30T09:58:01.026Z,100219.27
2023-01-30T10:00:42.280Z,100242.75
2023-01-30T10:03:09.113Z,100233.61
2023-01-30T10:05:46.782Z,100231.84
2023-01-30T10:08:32.093Z,100226.80
2023-01-30T10:11:17.556Z,100233.69
2023-01-30T10:13:50.117Z,100223.83
2023-01-30T10:16:35.097Z,100220.30
2023-01-30T10:19:39.536Z,100231.29
2023-01-30T10:22:31.142Z,100236.79
2023-01-30T10:25:03.980Z,100232.63
2023-01-30T10:27:33.164Z,100215.90
2023-01-30T10:30:05.294Z,100229.38
2023-01-30T10:32:57.511Z,100225.73
2023-01-30T10:35:30.183Z,100219.97
2023-01-30T10:38:06.134Z,100207.91
2023-01-30T10:40:41.494Z,100205.80
2023-01-30T10:43:28.180Z,100206.63
2023-01-30T10:46:14.892Z,100198.95
2023-01-30T10:49:03.363Z,100197.73
2023-01-30T10:51:38.853Z,100197.15
2023-01-30T10:54:20.729Z,100184.11
2023-01-30T10:56:53.350Z,100196.19
2023-01-30T10:59:24.692Z,100190.18
2023-01-30T11:02:00.165Z,100187.70
2023-01-30T11:04:58.760Z,100181.17
2023-01-30T11:07:30.010Z,100188.55
2023-01-30T11:09:58.831Z,100190.02
2023-01-30T11:12:25.989Z,100183.33
2023-01-30T11:15:01.523Z,100178.45
2023-01-30T11:17:39.188Z,100205.92
2023-01-30T11:20:21.432Z,100198.70
2023-01-30T11:22:51.592Z,100225.53
2023-01-30T11:25:22.031Z,100207.18
2023-01-30T11:27:55.710Z,100201.91
2023-01-30T11:30:28.119Z,100188.88
2023-01-30T11:33:24.563Z,100206.36
2023-01-30T11:36:28.676Z,100198.87
2023-01-30T11:39:04.697Z,100199.21
2023-01-30T11:41:31.736Z,100196.73
2023-01-30T11:44:04.503Z,100172.25
2023-01-30T11:46:35.141Z,100173.94
2023-01-30T11:49:35.689Z,100160.58
2023-01-30T11:51:54.283Z,100162.56
2023-01-30T11:54:38.995Z,100151.55
2023-01-30T11:57:13.356Z,100155.16
2023-01-30T11:59:47.618Z,100162.88
2023-01-30T12:02:25.850Z,100167.25
2023-01-30T12:04:56.147Z,100150.72
2023-01-30T12:07:31.795Z,100156.71
2023-01-30T12:09:58.941Z,100157.98
2023-01-30T12:12:48.052Z,100175.40
2023-01-30T12:15:25.700Z,100168.73
2023-01-30T12:18:11.297Z,100177.28
2023-01-30T12:20:58.659Z,100201.18
2023-01-30T12:23:46.287Z,100198.39
2023-01-30T12:26:34.154Z,100208.66
2023-01-30T12:29:34.107Z,100240.15
2023-01-30T12:32:14.168Z,100224.35
2023-01-30T12:34:45.574Z,100210.39
2023-01-30T12:37:33.050Z,100212.25
2023-01-30T12:40:16.248Z,100203.23
2023-01-30T12:43:02.871Z,100205.98
2023-01-30T12:45:34.244Z,100209.62
2023-01-30T12:48:22.377Z,100192.92
2023-01-30T12:51:18.259Z,100193.48
2023-01-30T12:53:48.379Z,100188.01
2023-01-30T12:56:33.948Z,100190.27
2023-01-30T12:59:22.151Z,100190.17
2023-01-30T13:02:04.432Z,100203.63
2023-01-30T13:04:56.489Z,100183.27
2023-01-30T13:07:36.067Z,100191.45
2023-01-30T13:10:33.292Z,100187.99
2023-01-30T13:13:29.212Z,100207.23
2023-01-30T13:16:10.680Z,100214.30
2023-01-30T13:18:54.249Z,100212.16
2023-01-30T13:21:32.820Z,100204.04
2023-01-30T13:24:18.866Z,100208.91
2023-01-30T13:26:47.432Z,100205.37
2023-01-30T13:29:38.808Z,100205.06
2023-01-30T13:32:15.376Z,100216.62
2023-01-30T13:34:48.593Z,100198.90
2023-01-30T13:37:18.316Z,100209.20
2023-01-30T13:39:58.566Z,100188.25
2023-01-30T13:43:02.652Z,100197.60
2023-01-30T13:45:33.927Z,100195.17
2023-01-30T13:48:29.842Z,100195.81
2023-01-30T13:51:05.387Z,100204.44
2023-01-30T13:53:40.961Z,100206.36
2023-01-30T13:56:40.934Z,100203.99
2023-01-30T13:59:14.647Z,100211.94
2023-01-30T14:02:04.385Z,100229.98
2023-01-30T14:04:40.290Z,100225.73
2023-01-30T14:07:23.031Z,100236.45
2023-01-30T14:10:03.003Z,100250.16
2023-01-30T14:12:42.139Z,100264.29
2023-01-30T14:15:15.091Z,100269.48
2023-01-30T14:18:19.522Z,100284.97
2023-01-30T14:20:48.942Z,100294.89
2023-01-30T14:23:32.168Z,100302.95
2023-01-30T14:25:59.259Z,100317.98
2023-01-30T14:28:28.870Z,100326.39
2023-01-30T14:31:03.331Z,100321.42
2023-01-30T14:33:49.007Z,100353.67
2023-01-30T14:36:15.876Z,100352.84
2023-01-30T14:38:44.539Z,100361.86
2023-01-30T14:41:26.536Z,100372.08
2023-01-30T14:43:54.295Z,100389.65
2023-01-30T14:46:21.167Z,100381.31
2023-01-30T14:48:53.116Z,100399.91
2023-01-30T14:51:39.825Z,100394.61
2023-01-30T14:54:13.316Z,100390.09
2023-01-30T14:56:47.277Z,100394.13
2023-01-30T14:59:16.839Z,100415.97
2023-01-30T15:02:00.894Z,100417.55
2023-01-30T15:04:41.713Z,100408.28
2023-01-30T15:07:17.442Z,100398.08
2023-01-30T15:10:02.563Z,100402.20
2023-01-30T15:13:09.835Z,100407.38
2023-01-30T15:15:58.123Z,100404.83
2023-01-30T15:18:41.834Z,100412.25
2023-01-30T15:21:29.222Z,100416.34
2023-01-30T15:23:58.839Z,100415.40
2023-01-30T15:26:44.565Z,100429.53
2023-01-30T15:29:26.583Z,100424.80
2023-01-30T15:31:59.065Z,100436.73
2023-01-30T15:34:34.530Z,100446.00
2023-01-30T15:37:01.473Z,100442.58
2023-01-30T15:39:28.884Z,100454.27
2023-01-30T15:42:06.054Z,100440.81
2023-01-30T15:44:43.147Z,100453.07
2023-01-30T15:47:21.917Z,100477.08
2023-01-30T15:50:02.530Z,100493.48
2023-01-30T15:52:36.024Z,100466.82
2023-01-30T15:55:02.941Z,100494.98
2023-01-30T15:57:39.261Z,100490.70
2023-01-30T16:00:11.385Z,100509.05
2023-01-30T16:02:38.647Z,100524.83
2023-01-30T16:05:24.870Z,100556.27
2023-01-30T16:07:54.794Z,100533.14
2023-01-30T16:10:26.919Z,100564.50
2023-01-30T16:12:56.362Z,100556.37
2023-01-30T16:15:38.935Z,100580.21
2023-01-30T16:18:33.748Z,100574.52
2023-01-30T16:21:04.217Z,100583.36
2023-01-30T16:23:43.918Z,100575.20
2023-01-30T16:26:18.024Z,100573.78
2023-01-30T16:28:45.373Z,100582.55
2023-01-30T16:31:12.490Z,100591.52
2023-01-30T16:33:40.078Z,100602.15
2023-01-30T16:36:26.518Z,100621.23
2023-01-30T16:38:54.669Z,100628.41
2023-01-30T16:41:39.472Z,100646.73
2023-01-30T16:44:20.434Z,100667.34
2023-01-30T16:47:22.325Z,100692.48
2023-01-30T16:49:49.902Z,100671.05
2023-01-30T16:52:36.992Z,100675.40
2023-01-30T16:55:08.809Z,100661.84
2023-01-30T16:57:45.986Z,100683.81
2023-01-30T17:00:32.955Z,100693.73
2023-01-30T17:03:19.773Z,100688.36
2023-01-30T17:05:49.444Z,100689.08
2023-01-30T17:08:32.120Z,100692.44
2023-01-30T17:11:03.420Z,100699.00
2023-01-30T17:13:36.230Z,100702.04
2023-01-30T17:16:24.774Z,100712.69
2023-01-30T17:18:54.265Z,100724.77
2023-01-30T17:21:23.141Z,100726.77
2023-01-30T17:23:53.943Z,100735.11
2023-01-30T17:26:21.135Z,100732.44
2023-01-30T17:28:48.372Z,100739.27
2023-01-30T17:31:17.196Z,100740.89
2023-01-30T17:33:49.258Z,100743.38
2023-01-30T17:36:23.041Z,100752.37
2023-01-30T17:38:51.346Z,100752.29
2023-01-30T17:41:33.522Z,100757.38
2023-01-30T17:44:01.086Z,100771.39
2023-01-30T17:46:35.461Z,100776.59
2023-01-30T17:49:02.318Z,100782.23
2023-01-30T17:51:29.360Z,100784.47
2023-01-30T17:53:59.124Z,100788.30
2023-01-30T17:56:38.432Z,100780.77
2023-01-30T17:59:08.564Z,100786.67
2023-01-30T18:01:35.093Z,100788.67
2023-01-30T18:04:04.973Z,100793.31
2023-01-30T18:06:33.855Z,100790.80
2023-01-30T18:09:00.751Z,100792.74
2023-01-30T18:11:29.904Z,100801.23
2023-01-30T18:13:56.747Z,100810.05
2023-01-30T18:16:28.606Z,100814.52
2023-01-30T18:18:55.697Z,100813.70
2023-01-30T18:21:22.646Z,100822.45
2023-01-30T18:23:50.290Z,100832.09
2023-01-30T18:26:19.005Z,100848.25
2023-01-30T18:28:46.465Z,100835.02
2023-01-30T18:31:14.167Z,100849.11
2023-01-30T18:33:44.404Z,100844.73
2023-01-30T18:36:13.564Z,100845.78
2023-01-30T18:38:40.974Z,100847.17
2023-01-30T18:41:15.773Z,100860.05
2023-01-30T18:43:43.348Z,100868.55
2023-01-30T18:46:14.344Z,100863.65
2023-01-30T18:48:42.662Z,100863.88
2023-01-30T18:51:13.677Z,100884.78
2023-01-30T18:53:42.248Z,100876.55
2023-01-30T18:56:11.689Z,100876.84
2023-01-30T18:58:38.875Z,100885.00
2023-01-30T19:01:16.813Z,100898.06
2023-01-30T19:03:45.052Z,100902.67
2023-01-30T19:06:15.252Z,100900.12
2023-01-30T19:08:42.615Z,100896.38
2023-01-30T19:11:33.240Z,100895.02
2023-01-30T19:14:01.053Z,100897.22
2023-01-30T19:16:29.655Z,100902.44
2023-01-30T19:18:56.469Z,100901.80
2023-01-30T19:21:24.705Z,100893.86
2023-01-30T19:23:51.671Z,100902.38
2023-01-30T19:26:19.603Z,100907.36
2023-01-30T19:28:46.953Z,100896.56
2023-01-30T19:31:16.553Z,100907.83
2023-01-30T19:33:45.503Z,100906.34
2023-01-30T19:36:15.766Z,100911.88
2023-01-30T19:38:44.476Z,100915.54
2023-01-30T19:41:12.046Z,100917.33
2023-01-30T19:43:38.788Z,100926.33
2023-01-30T19:46:06.055Z,100928.23
2023-01-30T19:48:33.736Z,100922.85
2023-01-30T19:51:08.858Z,100931.05
2023-01-30T19:53:35.678Z,100933.95
2023-01-30T19:56:04.823Z,100942.02
2023-01-30T19:58:31.746Z,100935.41
2023-01-30T20:01:06.738Z,100927.61
2023-01-30T20:03:33.776Z,100944.70
2023-01-30T20:06:13.005Z,100949.67
2023-01-30T20:08:40.980Z,100951.56
2023-01-30T20:11:10.390Z,100954.01
2023-01-30T20:13:39.969Z,100961.38
2023-01-30T20:16:15.734Z,100959.36
2023-01-30T20:18:42.319Z,100953.84
2023-01-30T20:21:11.435Z,100951.66
2023-01-30T20:23:41.227Z,100963.93
2023-01-30T20:26:09.814Z,100963.35
2023-01-30T20:28:36.889Z,100976.33
2023-01-30T20:31:12.985Z,100970.59
2023-01-30T20:33:40.481Z,100968.29
2023-01-30T20:36:09.801Z,100979.27
2023-01-30T20:38:39.005Z,100985.46
2023-01-30T20:41:11.693Z,100979.61
2023-01-30T20:43:39.884Z,100987.63
2023-01-30T20:46:08.791Z,100987.59
2023-01-30T20:48:36.183Z,100978.83
2023-01-30T20:51:05.469Z,100980.20
2023-01-30T20:53:32.083Z,100975.25
2023-01-30T20:55:59.645Z,100985.23
2023-01-30T20:58:27.585Z,100997.08
2023-01-30T21:00:54.522Z,100991.66
2023-01-30T21:03:24.656Z,100998.21
2023-01-30T21:05:58.284Z,101009.02
2023-01-30T21:08:26.600Z,101031.17
2023-01-30T21:10:54.253Z,101030.82
2023-01-30T21:13:21.464Z,101037.34
2023-01-30T21:15:48.568Z,101044.23
2023-01-30T21:18:15.237Z,101044.90
2023-01-30T21:20:48.519Z,101033.52
2023-01-30T21:23:15.328Z,101051.13
2023-01-30T21:25:41.926Z,101055.42
2023-01-30T21:28:10.521Z,101051.97
2023-01-30T21:30:38.215Z,101057.64
2023-01-30T21:33:05.182Z,101050.00
2023-01-30T21:35:31.915Z,101050.67
2023-01-30T21:38:37.746Z,101047.52
2023-01-30T21:41:23.330Z,101061.48
2023-01-30T21:43:49.995Z,101053.90
2023-01-30T21:46:16.882Z,101065.94
2023-01-30T21:48:43.508Z,101068.33
2023-01-30T21:51:11.920Z,101082.38
2023-01-30T21:53:39.037Z,101078.19
2023-01-30T21:56:06.331Z,101089.91
2023-01-30T21:58:34.523Z,101093.61
2023-01-30T22:01:06.647Z,101093.16
2023-01-30T22:03:36.934Z,101083.38
2023-01-30T22:06:06.766Z,101086.86
2023-01-30T22:08:35.222Z,101088.91
2023-01-30T22:11:11.418Z,101087.57
2023-01-30T22:13:39.874Z,101095.50
2023-01-30T22:16:11.309Z,101091.27
2023-01-30T22:18:39.640Z,101099.86
2023-01-30T22:21:11.028Z,101095.70
2023-01-30T22:23:40.369Z,101098.45
2023-01-30T22:26:08.904Z,101098.58
2023-01-30T22:28:36.411Z,101102.52
2023-01-30T22:31:05.918Z,101099.38
2023-01-30T22:33:33.854Z,101107.55
2023-01-30T22:36:01.768Z,101103.17
2023-01-30T22:38:28.533Z,101111.24
2023-01-30T22:41:07.409Z,101120.71
2023-01-30T22:43:36.086Z,101130.61
2023-01-30T22:46:08.083Z,101139.81
2023-01-30T22:48:35.995Z,101141.77
2023-01-30T22:51:13.917Z,101139.73
2023-01-30T22:53:42.983Z,101135.08
2023-01-30T22:56:15.172Z,101138.63
2023-01-30T22:58:42.414Z,101155.55
2023-01-30T23:01:16.050Z,101153.58
2023-01-30T23:03:44.555Z,101147.44
2023-01-30T23:06:13.893Z,101147.88
2023-01-30T23:08:43.861Z,101149.05
2023-01-30T23:11:15.165Z,101152.14
2023-01-30T23:13:43.881Z,101150.52
2023-01-30T23:16:10.891Z,101155.07
2023-01-30T23:18:57.002Z,101158.84
2023-01-30T23:21:28.670Z,101158.20
2023-01-30T23:23:59.103Z,101152.38
2023-01-30T23:26:28.144Z,101149.14
2023-01-30T23:28:55.454Z,101145.88
2023-01-30T23:31:23.994Z,101142.61
2023-01-30T23:33:56.027Z,101132.96
2023-01-30T23:36:23.296Z,101135.20
2023-01-30T23:38:51.489Z,101131.45
2023-01-30T23:41:21.148Z,101127.30
2023-01-30T23:43:49.154Z,101126.02
2023-01-30T23:46:21.770Z,101129.77
2023-01-30T23:48:51.313Z,101132.59
2023-01-30T23:51:23.430Z,101130.53
2023-01-30T23:53:51.658Z,101123.29
2023-01-30T23:56:19.905Z,101125.13
2023-01-30T23:58:50.188Z,101130.42
